地図

経路データ

SID SEASON NUMBER BASIN SUBBASIN NAME ISO_TIME NATURE LAT LON WMO_WIND WMO_PRES WMO_AGENCY TRACK_TYPE DIST2LAND LANDFALL IFLAG USA_AGENCY USA_ATCF_ID USA_LAT USA_LON USA_RECORD USA_STATUS USA_WIND USA_PRES USA_SSHS USA_R34_NE USA_R34_SE USA_R34_SW USA_R34_NW USA_R50_NE USA_R50_SE USA_R50_SW USA_R50_NW USA_R64_NE USA_R64_SE USA_R64_SW USA_R64_NW USA_POCI USA_ROCI USA_RMW USA_EYE TOKYO_LAT TOKYO_LON TOKYO_GRADE TOKYO_WIND TOKYO_PRES TOKYO_R50_DIR TOKYO_R50_LONG TOKYO_R50_SHORT TOKYO_R30_DIR TOKYO_R30_LONG TOKYO_R30_SHORT TOKYO_LAND CMA_LAT CMA_LON CMA_CAT CMA_WIND CMA_PRES HKO_LAT HKO_LON HKO_CAT HKO_WIND HKO_PRES NEWDELHI_LAT NEWDELHI_LON NEWDELHI_GRADE NEWDELHI_WIND NEWDELHI_PRES NEWDELHI_CI NEWDELHI_DP NEWDELHI_POCI REUNION_LAT REUNION_LON REUNION_TYPE REUNION_WIND REUNION_PRES REUNION_TNUM REUNION_CI REUNION_RMW REUNION_R34_NE REUNION_R34_SE REUNION_R34_SW REUNION_R34_NW REUNION_R50_NE REUNION_R50_SE REUNION_R50_SW REUNION_R50_NW REUNION_R64_NE REUNION_R64_SE REUNION_R64_SW REUNION_R64_NW BOM_LAT BOM_LON BOM_TYPE BOM_WIND BOM_PRES BOM_TNUM BOM_CI BOM_RMW BOM_R34_NE BOM_R34_SE BOM_R34_SW BOM_R34_NW BOM_R50_NE BOM_R50_SE BOM_R50_SW BOM_R50_NW BOM_R64_NE BOM_R64_SE BOM_R64_SW BOM_R64_NW BOM_ROCI BOM_POCI BOM_EYE BOM_POS_METHOD BOM_PRES_METHOD NADI_LAT NADI_LON NADI_CAT NADI_WIND NADI_PRES WELLINGTON_LAT WELLINGTON_LON WELLINGTON_WIND WELLINGTON_PRES DS824_LAT DS824_LON DS824_STAGE DS824_WIND DS824_PRES TD9636_LAT TD9636_LON TD9636_STAGE TD9636_WIND TD9636_PRES TD9635_LAT TD9635_LON TD9635_WIND TD9635_PRES TD9635_ROCI NEUMANN_LAT NEUMANN_LON NEUMANN_CLASS NEUMANN_WIND NEUMANN_PRES MLC_LAT MLC_LON MLC_CLASS MLC_WIND MLC_PRES USA_GUST BOM_GUST BOM_GUST_PER REUNION_GUST REUNION_GUST_PER USA_SEAHGT USA_SEARAD_NE USA_SEARAD_SE USA_SEARAD_SW USA_SEARAD_NW STORM_SPEED STORM_DIR
1911032S17068 1911 9 SI MM NOT_NAMED 1911-02-01 06:00:00 NR -17.4000 67.9000 reunion main 1111 1087 _____O________ -1 -17.4000 67.9000 99 9.90000 5 236
1911032S17068 1911 9 SI MM NOT_NAMED 1911-02-01 09:00:00 NR -17.5354 67.6933 main 1087 1060 _____P________ -1 -17.5354 67.6933 99 5 236
1911032S17068 1911 9 SI MM NOT_NAMED 1911-02-01 12:00:00 NR -17.6720 67.4835 main 1060 1036 _____P________ -1 -17.6720 67.4835 99 5 236
1911032S17068 1911 9 SI MM NOT_NAMED 1911-02-01 15:00:00 NR -17.8114 67.2677 main 1036 1013 _____P________ -1 -17.8114 67.2677 99 5 236
1911032S17068 1911 9 SI MM NOT_NAMED 1911-02-01 18:00:00 NR -17.9550 67.0432 main 999 976 _____P________ -1 -17.9550 67.0432 99 5 236
1911032S17068 1911 9 SI MM NOT_NAMED 1911-02-01 21:00:00 NR -18.1042 66.8071 main 976 950 _____P________ -1 -18.1042 66.8071 99 6 237
1911032S17068 1911 9 SI MM NOT_NAMED 1911-02-02 00:00:00 NR -18.2605 66.5564 main 950 916 _____P________ -1 -18.2605 66.5564 99 6 237
1911032S17068 1911 9 SI MM NOT_NAMED 1911-02-02 03:00:00 NR -18.4253 66.2884 main 916 880 _____P________ -1 -18.4253 66.2884 99 6 237
1911032S17068 1911 9 SI MM NOT_NAMED 1911-02-02 06:00:00 NR -18.6000 66.0000 reunion main 880 844 _____O________ -1 -18.6000 66.0000 99 9.90000 7 238
1911032S17068 1911 9 SI MM NOT_NAMED 1911-02-02 09:00:00 NR -18.7857 65.6893 main 844 808 _____P________ -1 -18.7857 65.6893 99 7 238
1911032S17068 1911 9 SI MM NOT_NAMED 1911-02-02 12:00:00 NR -18.9826 65.3581 main 808 763 _____P________ -1 -18.9826 65.3581 99 8 238
1911032S17068 1911 9 SI MM NOT_NAMED 1911-02-02 15:00:00 NR -19.1907 65.0093 main 763 728 _____P________ -1 -19.1907 65.0093 99 8 238
1911032S17068 1911 9 SI MM NOT_NAMED 1911-02-02 18:00:00 NR -19.4100 64.6457 main 718 683 _____P________ -1 -19.4100 64.6457 99 8 237
1911032S17068 1911 9 SI MM NOT_NAMED 1911-02-02 21:00:00 NR -19.6405 64.2702 main 683 638 _____P________ -1 -19.6405 64.2702 99 9 237
1911032S17068 1911 9 SI MM NOT_NAMED 1911-02-03 00:00:00 NR -19.8823 63.8855 main 638 595 _____P________ -1 -19.8823 63.8855 99 9 236
1911032S17068 1911 9 SI MM NOT_NAMED 1911-02-03 03:00:00 NR -20.1354 63.4945 main 595 552 _____P________ -1 -20.1354 63.4945 99 9 235
1911032S17068 1911 9 SI MM NOT_NAMED 1911-02-03 06:00:00 NR -20.4000 63.1000 reunion main 552 512 _____O________ -1 -20.4000 63.1000 99 9.90000 10 234
1911032S17068 1911 9 SI MM NOT_NAMED 1911-02-03 09:00:00 NR -20.7094 62.6666 main 512 464 _____P________ -1 -20.7094 62.6666 99 10 232
1911032S17068 1911 9 SI MM NOT_NAMED 1911-02-03 12:00:00 NR -21.0359 62.2207 main 464 430 _____P________ -1 -21.0359 62.2207 99 11 232
1911032S17068 1911 9 SI MM NOT_NAMED 1911-02-03 15:00:00 NR -21.3696 61.7729 main 433 401 _____P________ -1 -21.3696 61.7729 99 11 231
1911032S17068 1911 9 SI MM NOT_NAMED 1911-02-03 18:00:00 NR -21.7005 61.3343 main 395 371 _____P________ -1 -21.7005 61.3343 99 10 231
1911032S17068 1911 9 SI MM NOT_NAMED 1911-02-03 21:00:00 NR -22.0187 60.9162 main 371 355 _____P________ -1 -22.0187 60.9162 99 10 231
1911032S17068 1911 9 SI MM NOT_NAMED 1911-02-04 00:00:00 NR -22.3144 60.5300 main 352 341 _____P________ -1 -22.3144 60.5300 99 9 230
1911032S17068 1911 9 SI MM NOT_NAMED 1911-02-04 03:00:00 NR -22.5780 60.1873 main 349 341 _____P________ -1 -22.5780 60.1873 99 8 230
1911032S17068 1911 9 SI MM NOT_NAMED 1911-02-04 06:00:00 NR -22.8000 59.9000 reunion main 343 336 _____O________ -1 -22.8000 59.9000 99 9.90000 6 230
1911032S17068 1911 9 SI MM NOT_NAMED 1911-02-04 09:00:00 NR -22.9735 59.6765 main 347 341 _____P________ -1 -22.9735 59.6765 99 5 230
1911032S17068 1911 9 SI MM NOT_NAMED 1911-02-04 12:00:00 NR -23.1024 59.5122 main 344 344 _____P________ -1 -23.1024 59.5122 99 3 229
1911032S17068 1911 9 SI MM NOT_NAMED 1911-02-04 15:00:00 NR -23.1932 59.3987 main 349 344 _____P________ -1 -23.1932 59.3987 99 2 228
1911032S17068 1911 9 SI MM NOT_NAMED 1911-02-04 18:00:00 NR -23.2524 59.3278 main 353 353 _____P________ -1 -23.2524 59.3278 99 1 227
1911032S17068 1911 9 SI MM NOT_NAMED 1911-02-04 21:00:00 NR -23.2864 59.2910 main 353 353 _____P________ -1 -23.2864 59.2910 99 1 224
1911032S17068 1911 9 SI MM NOT_NAMED 1911-02-05 00:00:00 NR -23.3014 59.2798 main 353 353 _____P________ -1 -23.3014 59.2798 99 0 0
1911032S17068 1911 9 SI MM NOT_NAMED 1911-02-05 03:00:00 NR -23.3039 59.2856 main 353 353 _____P________ -1 -23.3039 59.2856 99 0 0
1911032S17068 1911 9 SI MM NOT_NAMED 1911-02-05 06:00:00 NR -23.3000 59.3000 reunion main 353 _____O________ -1 -23.3000 59.3000 99 9.90000 0 0

IBTrACS Databaseについて

本データベースは、米国NOAAが公開する1842年以降の世界の熱帯低気圧のベストトラックデータアーカイブInternational Best Track Archive for Climate Stewardship (IBTrACS)を、ウェブで閲覧しやすい形式に変換したものです。

最終更新日:2021-12-03